Time;durP1;ratioP1;P1;durP2;ratioP2;P2;SDS_P1;SDS_P2;PMS_P1;PMS_P2;Temp;Humidity;BMP_temperature;BMP_pressure;BME280_temperature;BME280_humidity;BME280_pressure;Samples;Min_cycle;Max_cycle;Signal;HPM_P1;HPM_P2
2021/09/29 00:00:28;;;;;;;14.50;7.47;;;12.80;99.90;;;;;;4113802;28;20050;-71
2021/09/29 00:02:29;;;;;;;11.75;6.97;;;12.80;99.90;;;;;;4111298;28;20042;-70
2021/09/29 00:04:29;;;;;;;11.75;7.28;;;12.80;99.90;;;;;;4115183;28;20046;-71
2021/09/29 00:06:30;;;;;;;15.38;7.97;;;12.70;99.90;;;;;;4109996;28;20054;-71
2021/09/29 00:08:31;;;;;;;13.27;7.30;;;12.70;99.90;;;;;;4111096;28;20043;-71
2021/09/29 00:10:32;;;;;;;13.73;8.18;;;12.60;99.90;;;;;;4111778;28;20061;-72
2021/09/29 00:12:33;;;;;;;15.88;7.47;;;12.60;99.90;;;;;;4125641;28;20346;-71
2021/09/29 00:14:33;;;;;;;13.43;7.10;;;12.50;99.90;;;;;;4111069;28;20490;-71
2021/09/29 00:16:34;;;;;;;14.07;7.82;;;12.50;99.90;;;;;;4110390;28;20462;-71
2021/09/29 00:18:35;;;;;;;13.38;7.47;;;12.50;99.90;;;;;;4113298;28;20061;-71
2021/09/29 00:20:36;;;;;;;13.15;8.10;;;12.50;99.90;;;;;;4110560;28;20051;-71
2021/09/29 00:22:37;;;;;;;13.10;8.55;;;12.50;99.90;;;;;;4110496;28;20101;-71
2021/09/29 00:24:37;;;;;;;11.93;8.32;;;12.50;99.90;;;;;;4110978;28;20461;-72
2021/09/29 00:26:38;;;;;;;14.38;7.55;;;12.50;99.90;;;;;;4126920;28;20034;-71
2021/09/29 00:28:39;;;;;;;12.68;7.72;;;12.50;99.90;;;;;;4112332;28;20035;-71
2021/09/29 00:30:50;;;;;;;14.93;8.38;;;12.50;99.90;;;;;;4113405;28;20101;-72
2021/09/29 00:32:51;;;;;;;10.50;7.15;;;12.50;99.90;;;;;;4124744;28;20034;-72
2021/09/29 00:34:52;;;;;;;13.77;8.45;;;12.50;99.90;;;;;;4119002;28;20185;-71
2021/09/29 00:36:53;;;;;;;15.02;7.68;;;12.50;99.90;;;;;;4103249;28;20386;-72
2021/09/29 00:38:54;;;;;;;13.20;7.78;;;12.50;99.90;;;;;;4113916;28;20035;-73
2021/09/29 00:40:54;;;;;;;14.63;7.75;;;12.50;99.90;;;;;;4129209;28;20046;-72
2021/09/29 00:42:55;;;;;;;16.50;8.30;;;12.50;99.90;;;;;;4114718;28;20130;-73
2021/09/29 00:44:56;;;;;;;11.63;8.68;;;12.40;99.90;;;;;;4113739;28;20089;-72
2021/09/29 00:46:57;;;;;;;11.82;7.78;;;12.40;99.90;;;;;;4114339;28;20046;-72
2021/09/29 00:48:58;;;;;;;11.93;8.43;;;12.40;99.90;;;;;;4112541;28;20063;-73
2021/09/29 00:50:59;;;;;;;15.32;9.30;;;12.30;99.90;;;;;;4114227;28;20074;-73
2021/09/29 00:53:01;;;;;;;12.88;8.13;;;12.30;99.90;;;;;;4114622;28;20038;-72
2021/09/29 00:55:02;;;;;;;15.98;9.10;;;12.30;99.90;;;;;;4112773;28;20137;-73
2021/09/29 00:57:03;;;;;;;14.65;9.30;;;12.30;99.90;;;;;;4128129;28;20073;-73
2021/09/29 00:59:05;;;;;;;18.23;9.48;;;12.30;99.90;;;;;;4114717;28;20454;-73
2021/09/29 01:01:05;;;;;;;14.57;8.88;;;12.30;99.90;;;;;;4115337;28;20034;-73
2021/09/29 01:03:07;;;;;;;16.85;9.82;;;12.30;99.90;;;;;;4103088;28;20122;-73
2021/09/29 01:05:08;;;;;;;13.77;8.88;;;12.20;99.90;;;;;;4121652;28;20481;-72
2021/09/29 01:07:26;;;;;;;14.65;8.98;;;12.20;99.90;;;;;;4111607;28;20034;-73
2021/09/29 01:10:05;;;;;;;13.75;9.43;;;12.10;99.90;;;;;;4111760;28;20090;-73
2021/09/29 01:12:54;;;;;;;11.70;7.82;;;12.00;99.90;;;;;;4103888;28;20496;-73
2021/09/29 01:15:12;;;;;;;19.70;9.85;;;12.00;99.90;;;;;;4114026;28;20082;-73
2021/09/29 01:17:17;;;;;;;13.80;9.98;;;12.00;99.90;;;;;;4110405;28;20045;-73
2021/09/29 01:20:13;;;;;;;13.57;9.80;;;11.90;99.90;;;;;;4112011;28;20110;-73
2021/09/29 01:22:25;;;;;;;16.58;9.30;;;11.80;99.90;;;;;;4109566;28;20038;-73
2021/09/29 01:24:54;;;;;;;19.90;11.02;;;11.80;99.90;;;;;;4121510;28;20054;-73
2021/09/29 01:26:58;;;;;;;15.23;10.02;;;11.80;99.90;;;;;;4110445;28;20046;-73
2021/09/29 01:29:11;;;;;;;14.18;9.15;;;11.70;99.90;;;;;;4126393;28;20053;-73
2021/09/29 01:31:12;;;;;;;;;;;11.70;99.90;;;;;;4118398;28;20038;-73
2021/09/29 01:33:14;;;;;;;18.80;9.73;;;11.60;99.90;;;;;;4111738;28;19933;-72
2021/09/29 01:35:16;;;;;;;13.45;9.55;;;11.60;99.90;;;;;;4113552;28;20359;-73
2021/09/29 01:37:17;;;;;;;16.90;10.55;;;11.60;99.90;;;;;;4112377;28;20035;-72
2021/09/29 01:39:24;;;;;;;18.45;10.45;;;11.60;99.90;;;;;;4109488;28;20031;-73
2021/09/29 01:41:29;;;;;;;18.13;10.60;;;11.60;99.90;;;;;;4081876;28;20043;-73
2021/09/29 01:43:30;;;;;;;16.00;11.00;;;11.60;99.90;;;;;;4116212;28;20043;-71
2021/09/29 01:45:30;;;;;;;15.48;10.63;;;11.70;99.90;;;;;;4112472;28;20101;-71
2021/09/29 01:47:31;;;;;;;15.57;10.68;;;11.60;99.90;;;;;;4109335;28;20130;-73
2021/09/29 01:49:46;;;;;;;17.40;11.05;;;11.60;99.90;;;;;;4114774;28;20057;-71
2021/09/29 01:51:50;;;;;;;17.15;11.45;;;11.70;99.90;;;;;;4127228;28;20042;-73
2021/09/29 01:53:55;;;;;;;17.20;11.65;;;11.70;99.90;;;;;;4129446;28;20549;-73
2021/09/29 01:55:56;;;;;;;23.77;12.02;;;11.60;99.90;;;;;;4127822;28;20046;-72
2021/09/29 01:57:57;;;;;;;17.42;10.30;;;11.50;99.90;;;;;;4112880;28;20102;-71
2021/09/29 01:59:58;;;;;;;20.13;11.27;;;11.50;99.90;;;;;;4112738;28;20039;-71
2021/09/29 02:01:59;;;;;;;15.13;10.82;;;11.50;99.90;;;;;;4113438;28;20081;-71
2021/09/29 02:03:59;;;;;;;18.13;10.90;;;11.40;99.90;;;;;;4113112;28;20073;-71
2021/09/29 02:06:00;;;;;;;15.38;10.52;;;11.40;99.90;;;;;;4127644;28;20038;-72
2021/09/29 02:08:07;;;;;;;21.15;11.27;;;11.30;99.90;;;;;;4120253;28;20038;-72
2021/09/29 02:10:09;;;;;;;20.70;12.80;;;11.40;99.90;;;;;;4098547;28;20106;-71
2021/09/29 02:12:10;;;;;;;15.65;11.18;;;11.30;99.90;;;;;;4089967;28;20043;-72
2021/09/29 02:14:12;;;;;;;17.67;10.93;;;11.20;99.90;;;;;;4105604;28;20499;-72
2021/09/29 02:16:13;;;;;;;20.52;11.75;;;11.20;99.90;;;;;;4112401;28;20034;-72
2021/09/29 02:18:14;;;;;;;19.55;11.23;;;11.20;99.90;;;;;;4124345;28;20030;-72
2021/09/29 02:20:15;;;;;;;19.80;11.48;;;11.20;99.90;;;;;;4111899;28;20086;-72
2021/09/29 02:22:16;;;;;;;17.45;10.50;;;11.20;99.90;;;;;;4099470;28;20458;-71
2021/09/29 02:24:18;;;;;;;17.33;11.30;;;11.20;99.90;;;;;;4107174;28;20042;-72
2021/09/29 02:26:19;;;;;;;18.33;11.93;;;11.10;99.90;;;;;;4100217;28;20044;-71
2021/09/29 02:28:20;;;;;;;22.10;12.25;;;11.10;99.90;;;;;;4124956;28;20053;-72
2021/09/29 02:30:22;;;;;;;19.70;12.60;;;11.00;99.90;;;;;;4091667;28;20110;-72
2021/09/29 02:32:23;;;;;;;26.80;12.48;;;11.00;99.90;;;;;;4114065;28;20082;-72
2021/09/29 02:34:24;;;;;;;16.75;11.68;;;11.00;99.90;;;;;;4116689;28;20038;-71
2021/09/29 02:36:25;;;;;;;20.50;12.52;;;11.10;99.90;;;;;;4105322;28;20039;-72
2021/09/29 02:38:25;;;;;;;15.48;11.30;;;11.00;99.90;;;;;;4103756;28;20122;-72
2021/09/29 02:40:26;;;;;;;19.50;11.65;;;11.00;99.90;;;;;;4115678;28;20521;-72
2021/09/29 02:42:28;;;;;;;18.00;11.65;;;11.10;99.90;;;;;;4116947;28;20058;-72
2021/09/29 02:44:28;;;;;;;22.02;11.98;;;11.10;99.90;;;;;;4120636;28;20355;-72
2021/09/29 02:46:29;;;;;;;18.58;12.73;;;11.10;99.90;;;;;;4116249;28;20038;-72
2021/09/29 02:48:31;;;;;;;18.98;11.40;;;11.10;99.90;;;;;;4114679;28;20533;-72
2021/09/29 02:50:31;;;;;;;19.48;11.43;;;11.10;99.90;;;;;;4116809;28;20157;-72
2021/09/29 02:52:33;;;;;;;16.35;11.85;;;11.10;99.90;;;;;;4114688;28;20105;-72
2021/09/29 02:54:34;;;;;;;17.90;10.82;;;11.10;99.90;;;;;;4127229;28;20042;-73
2021/09/29 02:56:35;;;;;;;15.50;11.02;;;11.10;99.90;;;;;;4100096;28;20142;-72
2021/09/29 02:58:36;;;;;;;19.67;12.15;;;11.20;99.90;;;;;;4114782;28;20041;-72
2021/09/29 03:00:36;;;;;;;20.55;11.65;;;11.20;99.90;;;;;;4123970;28;20035;-72
2021/09/29 03:02:37;;;;;;;16.25;11.70;;;11.20;99.90;;;;;;4101427;28;20039;-72
2021/09/29 03:04:38;;;;;;;14.27;10.20;;;11.20;99.90;;;;;;4131059;28;20054;-72
2021/09/29 03:06:39;;;;;;;18.42;12.25;;;11.20;99.90;;;;;;4112390;28;20093;-72
2021/09/29 03:08:40;;;;;;;16.70;10.40;;;11.20;99.90;;;;;;4105216;28;20164;-72
2021/09/29 03:10:42;;;;;;;16.08;10.73;;;11.30;99.90;;;;;;4128229;28;20041;-73
2021/09/29 03:12:43;;;;;;;12.98;9.82;;;11.30;99.90;;;;;;4130049;28;20034;-72
2021/09/29 03:14:44;;;;;;;15.52;10.90;;;11.30;99.90;;;;;;4114615;28;20678;-72
2021/09/29 03:16:45;;;;;;;13.38;10.70;;;11.40;99.90;;;;;;4115986;28;20046;-72
2021/09/29 03:18:48;;;;;;;22.92;13.77;;;11.40;99.90;;;;;;4114555;28;20493;-72
2021/09/29 03:20:49;;;;;;;16.35;11.35;;;11.50;99.90;;;;;;4115900;28;20039;-72
2021/09/29 03:22:50;;;;;;;13.35;9.98;;;11.50;99.90;;;;;;4116318;28;20047;-72
2021/09/29 03:24:50;;;;;;;18.85;11.20;;;11.60;99.90;;;;;;4109713;28;20050;-72
2021/09/29 03:26:51;;;;;;;11.85;9.40;;;11.60;99.90;;;;;;4099143;28;20039;-73
2021/09/29 03:28:52;;;;;;;13.60;9.52;;;11.70;99.90;;;;;;4116493;28;20134;-72
2021/09/29 03:30:53;;;;;;;16.88;10.35;;;11.80;99.90;;;;;;4130164;28;20051;-72
2021/09/29 03:32:54;;;;;;;11.20;9.27;;;11.90;99.90;;;;;;4113758;28;20043;-72
2021/09/29 03:34:54;;;;;;;15.52;9.48;;;11.90;99.90;;;;;;4114409;28;20098;-72
2021/09/29 03:36:55;;;;;;;13.10;9.63;;;11.90;99.90;;;;;;4113530;28;20447;-72
2021/09/29 03:39:00;;;;;;;12.15;9.35;;;11.90;99.90;;;;;;4128202;28;20042;-72
2021/09/29 03:41:01;;;;;;;15.60;10.27;;;11.80;99.90;;;;;;4114441;28;20034;-72
2021/09/29 03:43:02;;;;;;;17.90;11.20;;;11.80;99.90;;;;;;4124763;28;20121;-72
2021/09/29 03:45:04;;;;;;;14.80;9.95;;;11.80;99.90;;;;;;4113745;28;20474;-72
2021/09/29 03:47:05;;;;;;;16.58;9.85;;;11.70;99.90;;;;;;4108444;28;20034;-72
2021/09/29 03:49:06;;;;;;;17.33;11.32;;;11.70;99.90;;;;;;4127263;28;20437;-73
2021/09/29 03:51:06;;;;;;;18.05;10.82;;;11.70;99.90;;;;;;4112963;28;20043;-72
2021/09/29 03:53:07;;;;;;;19.35;10.68;;;11.60;99.90;;;;;;4114280;28;20042;-73
2021/09/29 03:55:09;;;;;;;20.85;11.88;;;11.50;99.90;;;;;;4103330;28;20050;-72
2021/09/29 03:57:10;;;;;;;14.10;11.30;;;11.50;99.90;;;;;;4126046;28;20413;-73
2021/09/29 03:59:11;;;;;;;18.60;11.07;;;11.50;99.90;;;;;;4112109;28;20042;-73
2021/09/29 04:01:11;;;;;;;14.93;10.40;;;11.40;99.90;;;;;;4115537;28;20039;-73
2021/09/29 04:03:12;;;;;;;20.77;11.77;;;11.40;99.90;;;;;;4113543;28;20030;-73
2021/09/29 04:05:13;;;;;;;17.55;11.63;;;11.30;99.90;;;;;;4115324;28;20109;-73
2021/09/29 04:07:14;;;;;;;17.48;10.93;;;11.40;99.90;;;;;;4127130;28;20390;-72
2021/09/29 04:09:15;;;;;;;14.82;10.73;;;11.30;99.90;;;;;;4105006;28;20046;-73
2021/09/29 04:11:16;;;;;;;18.92;11.75;;;11.30;99.90;;;;;;4112840;28;20528;-73
2021/09/29 04:13:17;;;;;;;18.13;11.68;;;11.30;99.90;;;;;;4114961;28;20050;-73
2021/09/29 04:15:18;;;;;;;16.20;10.93;;;11.30;99.90;;;;;;4113116;28;20417;-72
2021/09/29 04:17:19;;;;;;;22.98;11.20;;;11.30;99.90;;;;;;4114451;28;20058;-73
2021/09/29 04:19:20;;;;;;;19.30;12.35;;;11.30;99.90;;;;;;4097053;28;20035;-72
2021/09/29 04:21:20;;;;;;;18.10;12.20;;;11.30;99.90;;;;;;4125099;28;20130;-73
2021/09/29 04:23:21;;;;;;;18.23;10.63;;;11.30;99.90;;;;;;4114041;28;20042;-73
2021/09/29 04:25:22;;;;;;;16.40;10.77;;;11.40;99.90;;;;;;4113476;28;20034;-73
2021/09/29 04:27:23;;;;;;;13.68;10.02;;;11.40;99.90;;;;;;4128437;28;20225;-72
2021/09/29 04:29:24;;;;;;;18.52;10.98;;;11.40;99.90;;;;;;4097912;28;20199;-72
2021/09/29 04:31:24;;;;;;;19.77;11.18;;;11.40;99.90;;;;;;4128550;28;20042;-72
2021/09/29 04:33:25;;;;;;;14.88;9.60;;;11.40;99.90;;;;;;4113455;28;20038;-72
2021/09/29 04:35:27;;;;;;;18.15;10.23;;;11.40;99.90;;;;;;4113828;28;20047;-73
2021/09/29 04:37:27;;;;;;;12.82;9.68;;;11.40;99.90;;;;;;4113218;28;20039;-72
2021/09/29 04:39:28;;;;;;;14.98;9.70;;;11.60;99.90;;;;;;4113075;28;20069;-72
2021/09/29 04:41:29;;;;;;;19.05;9.60;;;11.70;99.90;;;;;;4113466;28;20047;-72
2021/09/29 04:43:30;;;;;;;14.93;8.48;;;11.70;99.90;;;;;;4110606;28;20091;-73
2021/09/29 04:45:31;;;;;;;15.32;8.23;;;11.70;99.90;;;;;;4113662;28;20591;-72
2021/09/29 04:47:33;;;;;;;16.58;8.27;;;11.80;99.90;;;;;;4124029;28;20038;-73
2021/09/29 04:49:34;;;;;;;10.55;7.60;;;11.80;99.90;;;;;;4127616;28;20050;-72
2021/09/29 04:51:35;;;;;;;11.88;7.22;;;11.90;99.90;;;;;;4114373;28;20038;-72
2021/09/29 04:53:36;;;;;;;11.40;6.18;;;12.00;99.90;;;;;;4129296;28;20037;-73
2021/09/29 04:55:37;;;;;;;14.05;7.55;;;12.00;99.90;;;;;;4113542;28;20097;-73
2021/09/29 04:57:38;;;;;;;13.43;7.15;;;12.10;99.90;;;;;;4114532;28;20112;-72
2021/09/29 04:59:38;;;;;;;19.48;8.32;;;12.00;99.90;;;;;;4107597;28;20534;-71
2021/09/29 05:01:43;;;;;;;15.30;7.50;;;11.90;99.90;;;;;;4113646;28;20166;-72
2021/09/29 05:03:44;;;;;;;11.38;7.43;;;11.90;99.90;;;;;;4112344;28;20109;-70
2021/09/29 05:05:45;;;;;;;26.83;8.45;;;11.80;99.90;;;;;;4113220;28;20061;-70
2021/09/29 05:07:53;;;;;;;15.82;7.80;;;11.80;99.90;;;;;;4114296;28;20046;-69
2021/09/29 05:09:53;;;;;;;20.10;7.97;;;11.80;99.90;;;;;;4112122;28;20612;-70
2021/09/29 05:12:15;;;;;;;14.27;7.53;;;11.80;99.90;;;;;;4114881;28;20042;-70
2021/09/29 05:14:16;;;;;;;12.93;7.70;;;11.70;99.90;;;;;;4125459;28;20053;-70
2021/09/29 05:16:17;;;;;;;11.80;7.40;;;11.70;99.90;;;;;;4111964;28;20038;-71
2021/09/29 05:18:17;;;;;;;13.13;7.15;;;11.70;99.90;;;;;;4125541;28;20046;-70
2021/09/29 05:20:18;;;;;;;16.95;7.85;;;11.70;99.90;;;;;;4112197;28;20031;-71
2021/09/29 05:22:19;;;;;;;15.55;8.95;;;11.70;99.90;;;;;;4098284;28;20028;-71
2021/09/29 05:24:20;;;;;;;15.07;8.85;;;11.70;99.90;;;;;;4105210;28;20145;-73
2021/09/29 05:26:21;;;;;;;16.83;7.57;;;11.60;99.90;;;;;;4112155;28;20435;-72
2021/09/29 05:28:26;;;;;;;14.35;7.22;;;11.60;99.90;;;;;;4110880;28;20045;-74
2021/09/29 05:30:28;;;;;;;13.93;7.20;;;11.60;99.90;;;;;;4101852;28;20039;-73
2021/09/29 05:32:28;;;;;;;14.25;8.20;;;11.60;99.90;;;;;;4112534;28;20074;-72
2021/09/29 05:34:29;;;;;;;15.32;7.40;;;11.60;99.90;;;;;;4112930;28;20046;-73
2021/09/29 05:36:30;;;;;;;20.52;8.02;;;11.60;99.90;;;;;;4111045;28;20097;-71
2021/09/29 05:38:30;;;;;;;15.57;7.88;;;11.60;99.90;;;;;;4100751;28;20090;-73
2021/09/29 05:40:31;;;;;;;18.67;9.10;;;11.70;99.90;;;;;;4111519;28;20131;-74
2021/09/29 05:42:32;;;;;;;14.60;8.93;;;11.70;99.90;;;;;;4114631;28;20130;-73
2021/09/29 05:44:34;;;;;;;15.32;8.13;;;11.70;99.90;;;;;;4124330;28;20034;-72
2021/09/29 05:46:35;;;;;;;20.20;11.65;;;11.80;99.90;;;;;;4114073;28;20138;-73
2021/09/29 05:48:35;;;;;;;18.73;10.38;;;11.90;99.90;;;;;;4112887;28;20173;-73
2021/09/29 05:50:36;;;;;;;18.50;8.43;;;11.90;99.90;;;;;;4112972;28;20475;-72
2021/09/29 05:52:37;;;;;;;14.63;8.25;;;11.90;99.90;;;;;;4101731;28;20068;-73
2021/09/29 05:54:38;;;;;;;21.05;8.10;;;12.00;99.90;;;;;;4120062;28;20183;-73
2021/09/29 05:56:39;;;;;;;21.65;8.80;;;12.00;99.90;;;;;;4112036;28;20031;-74
2021/09/29 05:58:40;;;;;;;18.52;8.25;;;12.00;99.90;;;;;;4096266;28;20377;-73
2021/09/29 06:00:41;;;;;;;15.55;7.65;;;12.00;99.90;;;;;;4113966;28;20044;-74
2021/09/29 06:02:42;;;;;;;10.63;7.15;;;12.10;99.90;;;;;;4117090;28;20053;-74
2021/09/29 06:04:43;;;;;;;15.43;7.72;;;12.10;99.90;;;;;;4115621;28;20038;-73
2021/09/29 06:06:44;;;;;;;13.63;7.43;;;12.10;99.90;;;;;;4116597;28;20058;-73
2021/09/29 06:08:45;;;;;;;11.98;7.07;;;12.20;99.90;;;;;;4117183;28;20054;-73
2021/09/29 06:10:46;;;;;;;10.45;7.10;;;12.20;99.90;;;;;;4105634;28;20451;-74
2021/09/29 06:12:47;;;;;;;11.50;6.93;;;12.20;99.90;;;;;;4115931;28;20059;-74
2021/09/29 06:14:52;;;;;;;13.18;7.03;;;12.20;99.90;;;;;;4127202;28;20104;-74
2021/09/29 06:17:00;;;;;;;12.82;6.65;;;12.20;99.90;;;;;;4114737;28;20106;-74
2021/09/29 06:19:01;;;;;;;14.02;7.38;;;12.20;99.90;;;;;;4115091;28;20054;-74
2021/09/29 06:21:03;;;;;;;14.55;6.43;;;12.20;99.90;;;;;;4114422;28;20039;-73
2021/09/29 06:23:03;;;;;;;9.32;6.70;;;12.30;99.90;;;;;;4113043;28;20069;-74
2021/09/29 06:25:06;;;;;;;12.13;7.07;;;12.30;99.90;;;;;;4108668;28;20054;-72
2021/09/29 06:27:07;;;;;;;9.63;6.40;;;12.30;99.90;;;;;;4115540;28;20072;-73
2021/09/29 06:29:08;;;;;;;9.95;6.50;;;12.30;99.90;;;;;;4110321;28;20074;-72
2021/09/29 06:31:08;;;;;;;14.20;7.07;;;12.30;99.90;;;;;;4105999;28;20046;-74
2021/09/29 06:33:09;;;;;;;9.80;6.72;;;12.30;99.90;;;;;;4108855;28;20446;-74
2021/09/29 06:35:11;;;;;;;9.80;6.85;;;12.30;99.90;;;;;;4118592;28;20078;-74
2021/09/29 06:37:12;;;;;;;11.60;7.15;;;12.30;99.90;;;;;;4114976;28;20053;-74
2021/09/29 06:39:13;;;;;;;13.45;6.50;;;12.20;99.90;;;;;;4098008;28;20054;-74
2021/09/29 06:41:14;;;;;;;13.93;7.97;;;12.20;99.90;;;;;;4099323;28;20102;-74
2021/09/29 06:43:15;;;;;;;16.23;7.07;;;12.30;99.90;;;;;;4119267;28;20050;-73
2021/09/29 06:45:16;;;;;;;10.98;5.95;;;12.30;99.90;;;;;;4099534;28;20034;-73
2021/09/29 06:47:16;;;;;;;11.32;6.60;;;12.40;99.90;;;;;;4102472;28;20749;-73
2021/09/29 06:49:17;;;;;;;13.50;6.40;;;12.40;99.90;;;;;;4096758;28;20059;-73
2021/09/29 06:51:18;;;;;;;8.30;6.40;;;12.50;99.90;;;;;;4104602;28;20054;-73
2021/09/29 06:53:21;;;;;;;13.77;6.60;;;12.60;99.90;;;;;;4098738;28;20366;-73
2021/09/29 06:55:22;;;;;;;12.18;6.47;;;12.70;99.90;;;;;;4098130;28;20053;-72
2021/09/29 06:57:23;;;;;;;14.00;6.30;;;12.90;99.90;;;;;;4118979;28;20530;-73
2021/09/29 06:59:23;;;;;;;13.23;6.82;;;13.00;99.90;;;;;;4101822;28;20034;-74
2021/09/29 07:01:24;;;;;;;10.88;6.10;;;13.20;99.90;;;;;;4096445;28;20039;-73
2021/09/29 07:03:25;;;;;;;11.30;6.50;;;13.30;99.90;;;;;;4103207;28;20061;-73
2021/09/29 07:05:26;;;;;;;20.67;7.38;;;13.40;99.90;;;;;;4118524;28;20513;-73
2021/09/29 07:07:28;;;;;;;12.13;5.65;;;13.50;99.90;;;;;;4098352;28;20177;-73
2021/09/29 07:09:29;;;;;;;9.68;5.43;;;13.50;99.90;;;;;;4099062;28;20055;-73
2021/09/29 07:11:29;;;;;;;7.55;5.40;;;13.40;99.90;;;;;;4112931;28;20118;-74
2021/09/29 07:13:30;;;;;;;7.90;5.47;;;13.20;99.90;;;;;;4107056;28;20542;-71
2021/09/29 07:15:31;;;;;;;9.10;5.75;;;13.00;99.90;;;;;;4112101;28;20578;-71
2021/09/29 07:17:32;;;;;;;8.57;5.20;;;12.90;99.90;;;;;;4102301;28;20058;-70
2021/09/29 07:19:33;;;;;;;12.13;5.93;;;12.90;99.90;;;;;;4098355;28;20043;-69
2021/09/29 07:21:33;;;;;;;9.23;5.07;;;12.90;99.90;;;;;;4100575;28;20055;-71
2021/09/29 07:23:34;;;;;;;11.27;5.85;;;12.80;99.90;;;;;;4099495;28;20043;-71
2021/09/29 07:25:37;;;;;;;11.13;6.10;;;12.70;99.90;;;;;;4117071;28;20542;-70
2021/09/29 07:27:38;;;;;;;6.45;4.80;;;12.80;99.90;;;;;;4098340;28;20054;-70
2021/09/29 07:29:39;;;;;;;9.10;5.18;;;12.80;99.90;;;;;;4099172;28;20031;-74
2021/09/29 07:31:41;;;;;;;7.57;5.45;;;12.70;99.90;;;;;;4102091;28;20065;-70
2021/09/29 07:33:42;;;;;;;7.88;4.63;;;12.70;99.90;;;;;;4101195;28;20043;-70
2021/09/29 07:35:43;;;;;;;6.75;5.43;;;12.70;99.90;;;;;;4096414;28;20045;-71
2021/09/29 07:37:44;;;;;;;6.38;5.22;;;12.70;99.90;;;;;;4100058;28;20038;-70
2021/09/29 07:39:46;;;;;;;7.53;5.60;;;12.60;99.90;;;;;;4101895;28;20038;-72
2021/09/29 07:41:47;;;;;;;10.93;5.65;;;12.60;99.90;;;;;;4099219;28;20050;-70
2021/09/29 07:43:48;;;;;;;8.85;5.60;;;12.50;99.90;;;;;;4100372;28;20046;-70
2021/09/29 07:45:49;;;;;;;9.10;5.93;;;12.60;99.90;;;;;;4102514;28;20038;-71
2021/09/29 07:47:51;;;;;;;7.03;5.18;;;12.50;99.90;;;;;;4118647;28;20161;-71
2021/09/29 07:49:52;;;;;;;8.90;5.82;;;12.60;99.90;;;;;;4096676;28;20042;-71
2021/09/29 07:51:54;;;;;;;14.15;6.20;;;12.50;99.90;;;;;;4098822;28;20529;-71
2021/09/29 07:53:55;;;;;;;11.23;6.32;;;12.50;99.90;;;;;;4088307;28;20078;-71
2021/09/29 07:55:56;;;;;;;7.38;5.90;;;12.60;99.90;;;;;;4087630;28;20118;-70
2021/09/29 07:57:56;;;;;;;8.25;6.80;;;12.70;99.90;;;;;;4098006;28;20479;-70
2021/09/29 07:59:57;;;;;;;10.10;6.25;;;12.80;99.90;;;;;;4101873;28;20034;-72
2021/09/29 08:01:58;;;;;;;9.38;6.28;;;12.80;99.90;;;;;;4096857;28;20110;-71
2021/09/29 08:03:59;;;;;;;11.32;6.30;;;12.80;99.90;;;;;;4100669;28;20447;-71
2021/09/29 08:06:03;;;;;;;13.18;6.85;;;12.70;99.90;;;;;;4096589;28;20159;-71
2021/09/29 08:08:04;;;;;;;11.15;7.28;;;12.60;99.90;;;;;;4098447;28;20031;-71
2021/09/29 08:10:08;;;;;;;8.63;6.45;;;12.60;99.90;;;;;;4102699;28;20105;-71
2021/09/29 08:12:09;;;;;;;8.75;6.53;;;12.60;99.90;;;;;;4116557;28;20050;-73
2021/09/29 08:14:10;;;;;;;9.88;5.68;;;12.60;99.90;;;;;;4096851;28;20042;-71
2021/09/29 08:16:11;;;;;;;8.40;5.72;;;12.60;99.90;;;;;;4102637;28;20047;-71
2021/09/29 08:18:12;;;;;;;10.73;5.90;;;12.70;99.90;;;;;;4117316;28;20414;-72
2021/09/29 08:20:18;;;;;;;11.55;5.57;;;12.70;99.90;;;;;;4097239;28;20053;-70
2021/09/29 08:22:20;;;;;;;9.77;5.03;;;12.70;99.90;;;;;;4118325;28;20031;-71
2021/09/29 08:24:26;;;;;;;7.93;5.85;;;12.80;99.90;;;;;;4100235;28;20050;-71
2021/09/29 08:31:15;;;;;;;9.73;6.78;;;12.60;99.90;;;;;;4101023;28;20045;-69
2021/09/29 08:33:20;;;;;;;11.45;5.88;;;12.60;99.90;;;;;;4100786;28;20554;-70
2021/09/29 08:42:09;;;;;;;9.23;6.68;;;12.50;99.90;;;;;;4052376;29;20084;-70
2021/09/29 08:51:25;;;;;;;8.55;6.35;;;12.70;99.90;;;;;;4116994;28;20038;-70
2021/09/29 08:53:30;;;;;;;9.10;6.97;;;12.80;99.90;;;;;;4113449;28;20027;-69
2021/09/29 08:58:18;;;;;;;7.78;6.95;;;13.10;99.90;;;;;;4100378;28;20564;-69
2021/09/29 09:14:59;;;;;;;7.90;7.00;;;12.70;99.90;;;;;;4100190;28;20054;-70
2021/09/29 09:17:04;;;;;;;9.43;8.43;;;12.50;99.90;;;;;;4085708;28;20043;-71
2021/09/29 09:19:14;;;;;;;8.25;7.32;;;12.40;99.90;;;;;;4095088;28;20043;-70
2021/09/29 09:21:16;;;;;;;8.60;6.93;;;12.30;99.90;;;;;;4096068;28;21677;-70
2021/09/29 09:23:17;;;;;;;7.30;6.00;;;12.30;99.90;;;;;;4095102;28;20066;-70
2021/09/29 09:25:34;;;;;;;6.63;6.03;;;12.20;99.90;;;;;;4099448;28;20100;-69
2021/09/29 09:27:45;;;;;;;6.78;5.85;;;12.10;99.90;;;;;;4116105;28;20042;-71
2021/09/29 09:29:52;;;;;;;6.70;6.10;;;12.10;99.90;;;;;;4093147;28;20466;-70
2021/09/29 09:32:04;;;;;;;9.98;6.55;;;12.00;99.90;;;;;;4099334;28;20043;-69
2021/09/29 09:34:08;;;;;;;7.40;6.70;;;12.00;99.90;;;;;;4093109;28;20035;-75
2021/09/29 09:36:08;;;;;;;6.82;6.13;;;12.00;99.90;;;;;;4100114;28;20066;-70
2021/09/29 09:38:22;;;;;;;6.15;5.53;;;12.10;99.90;;;;;;4095439;28;20038;-70
2021/09/29 09:40:28;;;;;;;;;;;12.10;99.90;;;;;;4094166;28;20051;-69
2021/09/29 09:42:48;;;;;;;8.23;6.13;;;12.10;99.90;;;;;;4100562;28;19917;-70
2021/09/29 09:44:49;;;;;;;8.02;7.22;;;12.00;99.90;;;;;;4092733;28;20054;-69
2021/09/29 09:47:11;;;;;;;9.15;7.05;;;12.00;99.90;;;;;;4100016;28;20113;-69
2021/09/29 09:49:11;;;;;;;10.57;6.90;;;12.00;99.90;;;;;;4094488;28;20055;-68
2021/09/29 09:51:15;;;;;;;9.38;8.35;;;12.00;99.90;;;;;;4097505;28;20449;-68
2021/09/29 09:53:16;;;;;;;8.48;6.93;;;12.00;99.90;;;;;;4093504;28;20129;-70
2021/09/29 09:55:19;;;;;;;7.80;7.03;;;12.10;99.90;;;;;;4101756;28;20551;-70
2021/09/29 09:57:21;;;;;;;9.82;7.50;;;12.00;99.90;;;;;;4100361;28;20040;-69
2021/09/29 09:59:30;;;;;;;9.50;7.18;;;12.00;99.90;;;;;;4096319;28;20379;-69
2021/09/29 10:01:31;;;;;;;9.43;7.05;;;12.00;99.90;;;;;;4093832;28;20089;-70
2021/09/29 10:03:32;;;;;;;14.15;7.38;;;11.90;99.90;;;;;;4102185;28;20046;-68
2021/09/29 10:05:33;;;;;;;10.02;8.30;;;12.00;99.90;;;;;;4096845;28;20435;-71
2021/09/29 10:07:34;;;;;;;8.68;6.93;;;11.90;99.90;;;;;;4096062;28;20046;-68
2021/09/29 10:09:42;;;;;;;8.23;6.82;;;11.90;99.90;;;;;;4115413;28;20049;-69
2021/09/29 10:12:31;;;;;;;8.45;7.55;;;11.90;99.90;;;;;;4095141;28;20030;-68
2021/09/29 10:26:38;;;;;;;7.30;5.88;;;11.80;99.90;;;;;;4095281;28;20054;-70
2021/09/29 10:28:41;;;;;;;9.65;6.40;;;11.80;99.90;;;;;;4096812;28;20130;-69
2021/09/29 10:32:45;;;;;;;9.05;6.35;;;11.80;99.90;;;;;;4096633;28;20128;-70
2021/09/29 10:35:05;;;;;;;8.95;5.72;;;11.80;99.90;;;;;;4094957;28;20043;-70
2021/09/29 10:44:04;;;;;;;6.80;4.80;;;11.60;99.90;;;;;;4094822;28;20498;-72
2021/09/29 10:46:36;;;;;;;8.35;4.60;;;11.50;99.90;;;;;;4096185;28;20050;-71
2021/09/29 10:48:48;;;;;;;5.38;4.00;;;11.50;99.90;;;;;;4099518;28;20093;-70
2021/09/29 11:31:17;;;;;;;5.65;3.05;;;11.50;99.90;;;;;;4112875;28;20136;-70
2021/09/29 11:33:36;;;;;;;2.92;2.35;;;11.70;99.90;;;;;;4100005;28;20133;-70
2021/09/29 11:38:13;;;;;;;3.90;2.17;;;12.20;99.90;;;;;;4095768;28;20063;-70
2021/09/29 12:10:59;;;;;;;7.72;2.60;;;12.30;99.90;;;;;;4045246;28;20036;-71
2021/09/29 12:13:04;;;;;;;4.47;2.55;;;12.30;99.90;;;;;;4073833;28;20677;-70
2021/09/29 12:15:08;;;;;;;3.75;2.63;;;12.30;99.90;;;;;;4074302;28;20134;-70
2021/09/29 12:17:11;;;;;;;4.00;2.70;;;12.70;99.90;;;;;;4098297;28;20109;-71
2021/09/29 12:19:24;;;;;;;5.47;2.40;;;13.10;99.90;;;;;;4101189;28;20076;-71
2021/09/29 12:21:48;;;;;;;6.25;2.85;;;13.60;99.90;;;;;;4084399;28;20051;-70
2021/09/29 12:23:50;;;;;;;2.50;2.30;;;14.10;99.90;;;;;;4083025;28;20054;-70
2021/09/29 12:25:58;;;;;;;5.38;3.25;;;14.40;99.90;;;;;;4081306;28;20123;-69
2021/09/29 12:28:34;;;;;;;4.78;3.15;;;14.50;99.90;;;;;;4073373;28;20138;-71
2021/09/29 12:30:40;;;;;;;3.20;2.50;;;14.60;99.90;;;;;;4081390;28;20057;-70
2021/09/29 12:32:54;;;;;;;6.05;3.35;;;14.50;99.90;;;;;;4082830;28;20047;-71
2021/09/29 12:35:57;;;;;;;3.65;2.95;;;14.50;99.90;;;;;;4079953;28;20121;-70
2021/09/29 12:37:53;;;;;;;7.32;3.80;;;14.50;99.90;;;;;;4088866;28;20062;-70
2021/09/29 12:39:57;;;;;;;5.03;3.40;;;14.30;99.90;;;;;;4081937;28;20119;-71
2021/09/29 12:41:58;;;;;;;5.85;3.15;;;14.30;99.90;;;;;;4081174;28;20050;-70
2021/09/29 12:44:13;;;;;;;4.65;3.72;;;14.30;99.90;;;;;;4078044;28;20051;-71
2021/09/29 12:46:17;;;;;;;6.68;3.72;;;14.30;99.90;;;;;;4085449;28;20538;-71